sensor_id;sensor_type;location;lat;lon;timestamp;temperature;humidity
21302;DHT22;10810;48.270;9.996;2022-07-29T00:00:52;24.00;86.50
21302;DHT22;10810;48.270;9.996;2022-07-29T00:03:35;24.00;87.00
21302;DHT22;10810;48.270;9.996;2022-07-29T00:06:07;24.00;87.80
21302;DHT22;10810;48.270;9.996;2022-07-29T00:08:40;24.00;87.20
21302;DHT22;10810;48.270;9.996;2022-07-29T00:11:08;23.90;88.40
21302;DHT22;10810;48.270;9.996;2022-07-29T00:13:41;24.00;87.60
21302;DHT22;10810;48.270;9.996;2022-07-29T00:16:10;24.10;89.70
21302;DHT22;10810;48.270;9.996;2022-07-29T00:18:40;24.10;88.20
21302;DHT22;10810;48.270;9.996;2022-07-29T00:21:12;24.00;89.40
21302;DHT22;10810;48.270;9.996;2022-07-29T00:23:46;23.90;88.00
21302;DHT22;10810;48.270;9.996;2022-07-29T00:26:14;23.80;88.40
21302;DHT22;10810;48.270;9.996;2022-07-29T00:28:43;23.90;86.40
21302;DHT22;10810;48.270;9.996;2022-07-29T00:31:10;23.80;89.60
21302;DHT22;10810;48.270;9.996;2022-07-29T00:33:45;23.80;87.90
21302;DHT22;10810;48.270;9.996;2022-07-29T00:36:14;23.80;89.40
21302;DHT22;10810;48.270;9.996;2022-07-29T00:38:48;23.80;89.10
21302;DHT22;10810;48.270;9.996;2022-07-29T00:41:25;23.80;89.90
21302;DHT22;10810;48.270;9.996;2022-07-29T00:43:55;23.90;89.30
21302;DHT22;10810;48.270;9.996;2022-07-29T00:46:25;23.70;88.20
21302;DHT22;10810;48.270;9.996;2022-07-29T00:48:54;23.70;88.70
21302;DHT22;10810;48.270;9.996;2022-07-29T00:51:25;23.70;88.20
21302;DHT22;10810;48.270;9.996;2022-07-29T00:53:54;23.60;88.70
21302;DHT22;10810;48.270;9.996;2022-07-29T00:56:22;23.60;90.00
21302;DHT22;10810;48.270;9.996;2022-07-29T00:58:50;23.60;88.70
21302;DHT22;10810;48.270;9.996;2022-07-29T01:01:21;23.60;87.70
21302;DHT22;10810;48.270;9.996;2022-07-29T01:03:56;23.60;89.20
21302;DHT22;10810;48.270;9.996;2022-07-29T01:06:33;23.60;89.90
21302;DHT22;10810;48.270;9.996;2022-07-29T01:09:11;23.60;89.70
21302;DHT22;10810;48.270;9.996;2022-07-29T01:11:40;23.50;90.00
21302;DHT22;10810;48.270;9.996;2022-07-29T01:14:14;23.60;89.30
21302;DHT22;10810;48.270;9.996;2022-07-29T01:16:54;23.50;90.00
21302;DHT22;10810;48.270;9.996;2022-07-29T01:19:47;23.50;89.20
21302;DHT22;10810;48.270;9.996;2022-07-29T01:22:27;23.50;87.00
21302;DHT22;10810;48.270;9.996;2022-07-29T01:25:32;23.50;87.30
21302;DHT22;10810;48.270;9.996;2022-07-29T01:28:17;23.50;87.10
21302;DHT22;10810;48.270;9.996;2022-07-29T01:30:52;23.40;87.30
21302;DHT22;10810;48.270;9.996;2022-07-29T01:33:25;23.40;87.60
21302;DHT22;10810;48.270;9.996;2022-07-29T01:36:14;23.40;90.20
21302;DHT22;10810;48.270;9.996;2022-07-29T01:41:32;23.40;89.50
21302;DHT22;10810;48.270;9.996;2022-07-29T01:44:07;23.40;89.10
21302;DHT22;10810;48.270;9.996;2022-07-29T01:46:57;23.30;87.30
21302;DHT22;10810;48.270;9.996;2022-07-29T01:49:28;23.30;90.00
21302;DHT22;10810;48.270;9.996;2022-07-29T01:51:59;23.30;89.70
21302;DHT22;10810;48.270;9.996;2022-07-29T01:54:32;23.20;88.60
21302;DHT22;10810;48.270;9.996;2022-07-29T01:57:19;23.20;87.70
21302;DHT22;10810;48.270;9.996;2022-07-29T01:59:48;23.20;89.60
21302;DHT22;10810;48.270;9.996;2022-07-29T02:02:34;23.20;87.80
21302;DHT22;10810;48.270;9.996;2022-07-29T02:05:02;23.20;87.20
21302;DHT22;10810;48.270;9.996;2022-07-29T02:07:33;23.10;87.10
21302;DHT22;10810;48.270;9.996;2022-07-29T02:10:02;23.20;86.80
21302;DHT22;10810;48.270;9.996;2022-07-29T02:12:42;23.10;88.60
21302;DHT22;10810;48.270;9.996;2022-07-29T02:15:17;22.40;87.20
21302;DHT22;10810;48.270;9.996;2022-07-29T02:17:53;23.10;89.70
21302;DHT22;10810;48.270;9.996;2022-07-29T02:20:25;23.10;89.30
21302;DHT22;10810;48.270;9.996;2022-07-29T02:22:53;23.00;87.70
21302;DHT22;10810;48.270;9.996;2022-07-29T02:25:26;23.00;87.10
21302;DHT22;10810;48.270;9.996;2022-07-29T02:27:57;23.10;88.60
21302;DHT22;10810;48.270;9.996;2022-07-29T02:30:48;23.00;88.50
21302;DHT22;10810;48.270;9.996;2022-07-29T02:33:18;23.20;89.00
21302;DHT22;10810;48.270;9.996;2022-07-29T02:35:49;23.00;87.90
21302;DHT22;10810;48.270;9.996;2022-07-29T02:38:17;23.00;87.30
21302;DHT22;10810;48.270;9.996;2022-07-29T02:41:08;22.90;89.00
21302;DHT22;10810;48.270;9.996;2022-07-29T02:43:37;22.90;86.40
21302;DHT22;10810;48.270;9.996;2022-07-29T02:46:08;22.90;86.40
21302;DHT22;10810;48.270;9.996;2022-07-29T02:48:43;22.90;86.40
21302;DHT22;10810;48.270;9.996;2022-07-29T02:51:58;22.90;86.40
21302;DHT22;10810;48.270;9.996;2022-07-29T02:54:09;22.90;89.30
21302;DHT22;10810;48.270;9.996;2022-07-29T02:56:44;22.80;87.40
21302;DHT22;10810;48.270;9.996;2022-07-29T02:59:18;22.80;88.70
21302;DHT22;10810;48.270;9.996;2022-07-29T03:01:52;22.80;89.10
21302;DHT22;10810;48.270;9.996;2022-07-29T03:04:23;22.70;87.50
21302;DHT22;10810;48.270;9.996;2022-07-29T03:06:53;22.70;86.20
21302;DHT22;10810;48.270;9.996;2022-07-29T03:09:24;22.70;87.40
21302;DHT22;10810;48.270;9.996;2022-07-29T03:11:55;22.70;87.60
21302;DHT22;10810;48.270;9.996;2022-07-29T03:14:23;22.70;86.00
21302;DHT22;10810;48.270;9.996;2022-07-29T03:16:52;22.70;86.70
21302;DHT22;10810;48.270;9.996;2022-07-29T03:19:32;22.60;87.00
21302;DHT22;10810;48.270;9.996;2022-07-29T03:22:07;22.60;86.20
21302;DHT22;10810;48.270;9.996;2022-07-29T03:24:39;22.70;88.70
21302;DHT22;10810;48.270;9.996;2022-07-29T03:27:09;22.50;88.60
21302;DHT22;10810;48.270;9.996;2022-07-29T03:29:39;22.50;86.20
21302;DHT22;10810;48.270;9.996;2022-07-29T03:32:06;22.60;87.10
21302;DHT22;10810;48.270;9.996;2022-07-29T03:34:37;22.50;87.80
21302;DHT22;10810;48.270;9.996;2022-07-29T03:37:04;22.50;85.90
21302;DHT22;10810;48.270;9.996;2022-07-29T03:39:40;22.40;86.70
21302;DHT22;10810;48.270;9.996;2022-07-29T03:42:10;22.50;86.40
21302;DHT22;10810;48.270;9.996;2022-07-29T03:44:40;22.40;86.00
21302;DHT22;10810;48.270;9.996;2022-07-29T03:47:09;22.40;87.00
21302;DHT22;10810;48.270;9.996;2022-07-29T03:49:40;22.60;87.50
21302;DHT22;10810;48.270;9.996;2022-07-29T03:52:07;22.40;85.90
21302;DHT22;10810;48.270;9.996;2022-07-29T03:54:36;22.30;85.80
21302;DHT22;10810;48.270;9.996;2022-07-29T03:57:06;22.30;85.80
21302;DHT22;10810;48.270;9.996;2022-07-29T03:59:34;22.30;85.90
21302;DHT22;10810;48.270;9.996;2022-07-29T04:02:06;22.30;87.00
21302;DHT22;10810;48.270;9.996;2022-07-29T04:04:41;22.50;89.10
21302;DHT22;10810;48.270;9.996;2022-07-29T04:07:13;22.20;88.70
21302;DHT22;10810;48.270;9.996;2022-07-29T04:09:43;22.20;89.50
21302;DHT22;10810;48.270;9.996;2022-07-29T04:12:13;22.20;87.80
21302;DHT22;10810;48.270;9.996;2022-07-29T04:14:40;22.30;89.00
21302;DHT22;10810;48.270;9.996;2022-07-29T04:17:28;22.20;88.50
21302;DHT22;10810;48.270;9.996;2022-07-29T04:20:00;22.20;89.60
21302;DHT22;10810;48.270;9.996;2022-07-29T04:22:34;22.10;89.20
21302;DHT22;10810;48.270;9.996;2022-07-29T04:25:03;22.10;89.20
21302;DHT22;10810;48.270;9.996;2022-07-29T04:27:38;22.10;88.30
21302;DHT22;10810;48.270;9.996;2022-07-29T04:30:27;22.10;89.90
21302;DHT22;10810;48.270;9.996;2022-07-29T04:32:59;22.10;88.80
21302;DHT22;10810;48.270;9.996;2022-07-29T04:35:40;22.00;87.70
21302;DHT22;10810;48.270;9.996;2022-07-29T04:38:27;22.10;86.90
21302;DHT22;10810;48.270;9.996;2022-07-29T04:40:56;22.00;86.90
21302;DHT22;10810;48.270;9.996;2022-07-29T04:43:36;22.00;90.00
21302;DHT22;10810;48.270;9.996;2022-07-29T04:46:06;21.70;88.80
21302;DHT22;10810;48.270;9.996;2022-07-29T04:48:35;22.00;89.70
21302;DHT22;10810;48.270;9.996;2022-07-29T04:51:04;21.90;88.00
21302;DHT22;10810;48.270;9.996;2022-07-29T04:53:36;21.90;88.90
21302;DHT22;10810;48.270;9.996;2022-07-29T04:56:17;21.90;87.70
21302;DHT22;10810;48.270;9.996;2022-07-29T04:58:44;21.90;89.70
21302;DHT22;10810;48.270;9.996;2022-07-29T05:01:11;21.90;87.90
21302;DHT22;10810;48.270;9.996;2022-07-29T05:03:38;21.90;87.70
21302;DHT22;10810;48.270;9.996;2022-07-29T05:06:12;21.90;88.90
21302;DHT22;10810;48.270;9.996;2022-07-29T05:08:55;21.90;89.10
21302;DHT22;10810;48.270;9.996;2022-07-29T05:11:25;21.90;90.00
21302;DHT22;10810;48.270;9.996;2022-07-29T05:13:55;21.90;90.40
21302;DHT22;10810;48.270;9.996;2022-07-29T05:16:23;21.90;88.80
21302;DHT22;10810;48.270;9.996;2022-07-29T05:18:55;21.90;88.80
21302;DHT22;10810;48.270;9.996;2022-07-29T05:22:57;21.90;88.30
21302;DHT22;10810;48.270;9.996;2022-07-29T05:24:11;22.00;90.30
21302;DHT22;10810;48.270;9.996;2022-07-29T05:26:39;21.90;88.40
21302;DHT22;10810;48.270;9.996;2022-07-29T05:29:16;21.90;89.50
21302;DHT22;10810;48.270;9.996;2022-07-29T05:31:45;21.90;89.10
21302;DHT22;10810;48.270;9.996;2022-07-29T05:34:21;21.90;90.40
21302;DHT22;10810;48.270;9.996;2022-07-29T05:36:56;22.00;90.50
21302;DHT22;10810;48.270;9.996;2022-07-29T05:39:29;21.90;90.20
21302;DHT22;10810;48.270;9.996;2022-07-29T05:41:56;21.90;90.00
21302;DHT22;10810;48.270;9.996;2022-07-29T05:44:25;21.90;90.00
21302;DHT22;10810;48.270;9.996;2022-07-29T05:47:02;22.00;90.40
21302;DHT22;10810;48.270;9.996;2022-07-29T05:49:46;21.90;90.50
21302;DHT22;10810;48.270;9.996;2022-07-29T05:52:18;22.00;90.70
21302;DHT22;10810;48.270;9.996;2022-07-29T05:54:49;22.00;90.70
21302;DHT22;10810;48.270;9.996;2022-07-29T05:57:23;22.10;90.40
21302;DHT22;10810;48.270;9.996;2022-07-29T05:59:50;22.00;90.50
21302;DHT22;10810;48.270;9.996;2022-07-29T06:02:18;22.00;88.90
21302;DHT22;10810;48.270;9.996;2022-07-29T06:04:45;22.00;90.10
21302;DHT22;10810;48.270;9.996;2022-07-29T06:07:19;22.00;89.30
21302;DHT22;10810;48.270;9.996;2022-07-29T06:09:49;22.00;91.10
21302;DHT22;10810;48.270;9.996;2022-07-29T06:12:16;22.20;91.00
21302;DHT22;10810;48.270;9.996;2022-07-29T06:14:45;22.00;90.40
21302;DHT22;10810;48.270;9.996;2022-07-29T06:17:12;22.10;90.70
21302;DHT22;10810;48.270;9.996;2022-07-29T06:19:40;22.00;90.00
21302;DHT22;10810;48.270;9.996;2022-07-29T06:22:07;22.00;90.60
21302;DHT22;10810;48.270;9.996;2022-07-29T06:24:36;22.00;90.00
21302;DHT22;10810;48.270;9.996;2022-07-29T06:27:08;22.20;90.10
21302;DHT22;10810;48.270;9.996;2022-07-29T06:29:35;22.00;90.30
21302;DHT22;10810;48.270;9.996;2022-07-29T06:32:03;22.00;89.80
21302;DHT22;10810;48.270;9.996;2022-07-29T06:34:30;22.00;89.30
21302;DHT22;10810;48.270;9.996;2022-07-29T06:36:57;22.00;89.40
21302;DHT22;10810;48.270;9.996;2022-07-29T06:39:24;22.00;89.20
21302;DHT22;10810;48.270;9.996;2022-07-29T06:41:51;22.00;89.20
21302;DHT22;10810;48.270;9.996;2022-07-29T06:44:20;22.00;90.10
21302;DHT22;10810;48.270;9.996;2022-07-29T06:46:48;22.00;90.00
21302;DHT22;10810;48.270;9.996;2022-07-29T06:49:17;22.00;90.00
21302;DHT22;10810;48.270;9.996;2022-07-29T06:51:44;22.00;89.30
21302;DHT22;10810;48.270;9.996;2022-07-29T06:54:12;22.00;89.50
21302;DHT22;10810;48.270;9.996;2022-07-29T06:56:39;22.00;89.30
21302;DHT22;10810;48.270;9.996;2022-07-29T06:59:10;22.00;89.90
21302;DHT22;10810;48.270;9.996;2022-07-29T07:01:40;22.00;89.20
21302;DHT22;10810;48.270;9.996;2022-07-29T07:04:08;22.00;89.70
21302;DHT22;10810;48.270;9.996;2022-07-29T07:06:44;22.00;90.60
21302;DHT22;10810;48.270;9.996;2022-07-29T07:09:13;22.00;90.20
21302;DHT22;10810;48.270;9.996;2022-07-29T07:11:41;22.00;89.50
21302;DHT22;10810;48.270;9.996;2022-07-29T07:14:08;22.00;90.70
21302;DHT22;10810;48.270;9.996;2022-07-29T07:16:45;22.00;90.90
21302;DHT22;10810;48.270;9.996;2022-07-29T07:19:13;22.00;91.60
21302;DHT22;10810;48.270;9.996;2022-07-29T07:21:42;22.10;91.40
21302;DHT22;10810;48.270;9.996;2022-07-29T07:24:09;22.00;91.40
21302;DHT22;10810;48.270;9.996;2022-07-29T07:26:38;22.00;91.00
21302;DHT22;10810;48.270;9.996;2022-07-29T07:29:06;22.00;91.60
21302;DHT22;10810;48.270;9.996;2022-07-29T07:34:26;22.10;90.70
21302;DHT22;10810;48.270;9.996;2022-07-29T07:36:53;22.10;91.50
21302;DHT22;10810;48.270;9.996;2022-07-29T07:39:21;22.10;91.20
21302;DHT22;10810;48.270;9.996;2022-07-29T07:41:53;22.00;91.20
21302;DHT22;10810;48.270;9.996;2022-07-29T07:44:26;21.60;92.20
21302;DHT22;10810;48.270;9.996;2022-07-29T07:46:54;22.10;91.90
21302;DHT22;10810;48.270;9.996;2022-07-29T07:49:27;22.00;92.20
21302;DHT22;10810;48.270;9.996;2022-07-29T07:51:54;22.00;91.60
21302;DHT22;10810;48.270;9.996;2022-07-29T07:54:21;22.00;91.40
21302;DHT22;10810;48.270;9.996;2022-07-29T07:56:52;22.00;92.60
21302;DHT22;10810;48.270;9.996;2022-07-29T07:59:27;22.00;93.10
21302;DHT22;10810;48.270;9.996;2022-07-29T08:02:00;22.00;93.40
21302;DHT22;10810;48.270;9.996;2022-07-29T08:04:55;22.00;93.60
21302;DHT22;10810;48.270;9.996;2022-07-29T08:07:41;22.20;93.00
21302;DHT22;10810;48.270;9.996;2022-07-29T08:10:09;22.10;94.20
21302;DHT22;10810;48.270;9.996;2022-07-29T08:12:39;22.20;94.40
21302;DHT22;10810;48.270;9.996;2022-07-29T08:15:15;22.20;94.40
21302;DHT22;10810;48.270;9.996;2022-07-29T08:18:14;22.30;94.00
21302;DHT22;10810;48.270;9.996;2022-07-29T08:20:42;22.30;94.50
21302;DHT22;10810;48.270;9.996;2022-07-29T08:23:37;22.40;94.40
21302;DHT22;10810;48.270;9.996;2022-07-29T08:26:16;22.40;94.10
21302;DHT22;10810;48.270;9.996;2022-07-29T08:28:45;22.50;93.60
21302;DHT22;10810;48.270;9.996;2022-07-29T08:31:15;22.40;93.10
21302;DHT22;10810;48.270;9.996;2022-07-29T08:33:44;22.40;92.80
21302;DHT22;10810;48.270;9.996;2022-07-29T08:36:15;22.40;93.90
21302;DHT22;10810;48.270;9.996;2022-07-29T08:38:45;22.50;93.60
21302;DHT22;10810;48.270;9.996;2022-07-29T08:41:17;22.50;93.50
21302;DHT22;10810;48.270;9.996;2022-07-29T08:43:45;22.50;92.50
21302;DHT22;10810;48.270;9.996;2022-07-29T08:46:25;22.50;93.60
21302;DHT22;10810;48.270;9.996;2022-07-29T08:48:52;22.50;93.60
21302;DHT22;10810;48.270;9.996;2022-07-29T08:51:26;22.50;92.20
21302;DHT22;10810;48.270;9.996;2022-07-29T08:53:55;22.60;92.60
21302;DHT22;10810;48.270;9.996;2022-07-29T08:56:22;22.60;92.80
21302;DHT22;10810;48.270;9.996;2022-07-29T08:58:56;22.60;92.70
21302;DHT22;10810;48.270;9.996;2022-07-29T09:01:25;22.70;93.70
21302;DHT22;10810;48.270;9.996;2022-07-29T09:03:56;22.70;92.90
21302;DHT22;10810;48.270;9.996;2022-07-29T09:06:25;22.70;92.90
21302;DHT22;10810;48.270;9.996;2022-07-29T09:08:56;22.70;93.20
21302;DHT22;10810;48.270;9.996;2022-07-29T09:11:25;22.70;92.80
21302;DHT22;10810;48.270;9.996;2022-07-29T09:13:53;22.80;92.70
21302;DHT22;10810;48.270;9.996;2022-07-29T09:16:34;22.80;92.70
21302;DHT22;10810;48.270;9.996;2022-07-29T09:19:24;22.80;92.60
21302;DHT22;10810;48.270;9.996;2022-07-29T09:21:57;22.80;93.10
21302;DHT22;10810;48.270;9.996;2022-07-29T09:24:23;22.80;93.00
21302;DHT22;10810;48.270;9.996;2022-07-29T09:26:54;22.80;93.60
21302;DHT22;10810;48.270;9.996;2022-07-29T09:29:27;22.90;93.80
21302;DHT22;10810;48.270;9.996;2022-07-29T09:31:56;23.00;93.20
21302;DHT22;10810;48.270;9.996;2022-07-29T09:34:29;22.90;94.00
21302;DHT22;10810;48.270;9.996;2022-07-29T09:36:59;22.90;94.00
21302;DHT22;10810;48.270;9.996;2022-07-29T09:39:34;22.90;93.30
21302;DHT22;10810;48.270;9.996;2022-07-29T09:42:03;22.90;93.10
21302;DHT22;10810;48.270;9.996;2022-07-29T09:44:47;22.90;93.00
21302;DHT22;10810;48.270;9.996;2022-07-29T09:47:20;22.90;92.80
21302;DHT22;10810;48.270;9.996;2022-07-29T09:49:55;23.00;93.00
21302;DHT22;10810;48.270;9.996;2022-07-29T09:52:29;23.50;93.20
21302;DHT22;10810;48.270;9.996;2022-07-29T09:55:22;23.10;94.00
21302;DHT22;10810;48.270;9.996;2022-07-29T09:57:51;23.00;93.10
21302;DHT22;10810;48.270;9.996;2022-07-29T10:00:20;23.00;93.80
21302;DHT22;10810;48.270;9.996;2022-07-29T10:02:50;23.00;93.10
21302;DHT22;10810;48.270;9.996;2022-07-29T10:06:03;23.00;93.60
21302;DHT22;10810;48.270;9.996;2022-07-29T10:08:50;23.00;92.70
21302;DHT22;10810;48.270;9.996;2022-07-29T10:11:22;23.00;93.50
21302;DHT22;10810;48.270;9.996;2022-07-29T10:13:49;23.00;93.20
21302;DHT22;10810;48.270;9.996;2022-07-29T10:16:16;23.00;92.80
21302;DHT22;10810;48.270;9.996;2022-07-29T10:18:47;23.00;93.50
21302;DHT22;10810;48.270;9.996;2022-07-29T10:21:19;23.00;92.70
21302;DHT22;10810;48.270;9.996;2022-07-29T10:23:55;23.20;93.50
21302;DHT22;10810;48.270;9.996;2022-07-29T10:26:37;23.00;93.70
21302;DHT22;10810;48.270;9.996;2022-07-29T10:29:06;23.00;93.60
21302;DHT22;10810;48.270;9.996;2022-07-29T10:31:42;23.00;92.80
21302;DHT22;10810;48.270;9.996;2022-07-29T10:36:18;23.10;93.10
21302;DHT22;10810;48.270;9.996;2022-07-29T10:37:19;23.00;92.80
21302;DHT22;10810;48.270;9.996;2022-07-29T10:40:07;23.10;93.40
21302;DHT22;10810;48.270;9.996;2022-07-29T10:42:54;23.10;93.50
21302;DHT22;10810;48.270;9.996;2022-07-29T10:45:26;23.10;93.40
21302;DHT22;10810;48.270;9.996;2022-07-29T10:48:03;23.10;93.60
21302;DHT22;10810;48.270;9.996;2022-07-29T10:50:52;23.10;92.30
21302;DHT22;10810;48.270;9.996;2022-07-29T10:53:47;23.10;92.50
21302;DHT22;10810;48.270;9.996;2022-07-29T10:56:33;23.10;92.30
21302;DHT22;10810;48.270;9.996;2022-07-29T10:59:31;23.10;93.40
21302;DHT22;10810;48.270;9.996;2022-07-29T11:02:02;23.10;92.40
21302;DHT22;10810;48.270;9.996;2022-07-29T11:04:59;23.10;92.10
21302;DHT22;10810;48.270;9.996;2022-07-29T11:07:27;23.10;92.00
21302;DHT22;10810;48.270;9.996;2022-07-29T11:10:21;23.10;91.80
21302;DHT22;10810;48.270;9.996;2022-07-29T11:12:49;23.10;91.70
21302;DHT22;10810;48.270;9.996;2022-07-29T11:15:22;23.20;91.60
21302;DHT22;10810;48.270;9.996;2022-07-29T11:18:06;23.20;92.40
21302;DHT22;10810;48.270;9.996;2022-07-29T11:20:37;23.20;91.50
21302;DHT22;10810;48.270;9.996;2022-07-29T11:23:20;23.20;91.50
21302;DHT22;10810;48.270;9.996;2022-07-29T11:26:14;23.20;91.50
21302;DHT22;10810;48.270;9.996;2022-07-29T11:29:01;23.20;91.60
21302;DHT22;10810;48.270;9.996;2022-07-29T11:31:35;23.20;91.50
21302;DHT22;10810;48.270;9.996;2022-07-29T11:34:17;23.20;91.30
21302;DHT22;10810;48.270;9.996;2022-07-29T11:37:16;23.20;91.00
21302;DHT22;10810;48.270;9.996;2022-07-29T11:39:44;23.20;90.70
21302;DHT22;10810;48.270;9.996;2022-07-29T11:42:40;23.20;90.50
21302;DHT22;10810;48.270;9.996;2022-07-29T11:45:10;23.20;90.70
21302;DHT22;10810;48.270;9.996;2022-07-29T11:47:40;23.20;90.40
21302;DHT22;10810;48.270;9.996;2022-07-29T11:50:12;23.20;90.30
21302;DHT22;10810;48.270;9.996;2022-07-29T11:52:44;23.20;90.50
21302;DHT22;10810;48.270;9.996;2022-07-29T11:55:14;23.20;90.50
21302;DHT22;10810;48.270;9.996;2022-07-29T11:58:00;23.20;90.30
21302;DHT22;10810;48.270;9.996;2022-07-29T12:00:30;23.30;91.70
21302;DHT22;10810;48.270;9.996;2022-07-29T12:03:00;23.30;90.90
21302;DHT22;10810;48.270;9.996;2022-07-29T12:05:40;23.30;90.40
21302;DHT22;10810;48.270;9.996;2022-07-29T12:08:18;23.30;90.40
21302;DHT22;10810;48.270;9.996;2022-07-29T12:10:59;23.30;90.40
21302;DHT22;10810;48.270;9.996;2022-07-29T12:13:41;23.30;91.50
21302;DHT22;10810;48.270;9.996;2022-07-29T12:16:09;23.30;90.90
21302;DHT22;10810;48.270;9.996;2022-07-29T12:18:38;23.30;90.50
21302;DHT22;10810;48.270;9.996;2022-07-29T12:21:09;23.30;91.20
21302;DHT22;10810;48.270;9.996;2022-07-29T12:23:36;23.30;91.00
21302;DHT22;10810;48.270;9.996;2022-07-29T12:26:04;23.30;90.40
21302;DHT22;10810;48.270;9.996;2022-07-29T12:28:36;23.30;90.50
21302;DHT22;10810;48.270;9.996;2022-07-29T12:31:04;23.40;90.60
21302;DHT22;10810;48.270;9.996;2022-07-29T12:33:35;23.30;90.90
21302;DHT22;10810;48.270;9.996;2022-07-29T12:36:03;23.30;91.10
21302;DHT22;10810;48.270;9.996;2022-07-29T12:38:30;23.40;91.50
21302;DHT22;10810;48.270;9.996;2022-07-29T12:40:57;23.40;91.50
21302;DHT22;10810;48.270;9.996;2022-07-29T12:43:35;23.40;92.10
21302;DHT22;10810;48.270;9.996;2022-07-29T12:46:12;22.40;92.70
21302;DHT22;10810;48.270;9.996;2022-07-29T12:52:03;23.50;92.00
21302;DHT22;10810;48.270;9.996;2022-07-29T12:54:50;23.50;91.90
21302;DHT22;10810;48.270;9.996;2022-07-29T12:57:17;23.50;92.00
21302;DHT22;10810;48.270;9.996;2022-07-29T12:59:45;23.50;91.60
21302;DHT22;10810;48.270;9.996;2022-07-29T13:02:21;23.60;92.40
21302;DHT22;10810;48.270;9.996;2022-07-29T13:05:01;23.60;92.00
21302;DHT22;10810;48.270;9.996;2022-07-29T13:07:39;23.60;92.20
21302;DHT22;10810;48.270;9.996;2022-07-29T13:10:11;23.70;91.90
21302;DHT22;10810;48.270;9.996;2022-07-29T13:15:24;23.70;90.50
21302;DHT22;10810;48.270;9.996;2022-07-29T13:17:51;23.70;90.40
21302;DHT22;10810;48.270;9.996;2022-07-29T13:20:26;23.70;90.30
21302;DHT22;10810;48.270;9.996;2022-07-29T13:23:01;23.70;90.90
21302;DHT22;10810;48.270;9.996;2022-07-29T13:25:32;23.70;90.60
21302;DHT22;10810;48.270;9.996;2022-07-29T13:28:20;23.80;91.30
21302;DHT22;10810;48.270;9.996;2022-07-29T13:30:53;23.80;91.10
21302;DHT22;10810;48.270;9.996;2022-07-29T13:33:20;23.80;91.10
21302;DHT22;10810;48.270;9.996;2022-07-29T13:35:47;23.80;89.90
21302;DHT22;10810;48.270;9.996;2022-07-29T13:38:19;23.80;90.80
21302;DHT22;10810;48.270;9.996;2022-07-29T13:41:00;23.80;90.60
21302;DHT22;10810;48.270;9.996;2022-07-29T13:43:27;23.80;90.40
21302;DHT22;10810;48.270;9.996;2022-07-29T13:45:56;23.90;89.30
21302;DHT22;10810;48.270;9.996;2022-07-29T13:48:30;23.90;90.50
21302;DHT22;10810;48.270;9.996;2022-07-29T13:51:01;23.90;88.70
21302;DHT22;10810;48.270;9.996;2022-07-29T13:53:35;23.90;90.00
21302;DHT22;10810;48.270;9.996;2022-07-29T13:56:08;23.90;90.10
21302;DHT22;10810;48.270;9.996;2022-07-29T13:58:40;23.90;90.60
21302;DHT22;10810;48.270;9.996;2022-07-29T14:01:08;24.10;90.10
21302;DHT22;10810;48.270;9.996;2022-07-29T14:03:44;24.00;85.90
21302;DHT22;10810;48.270;9.996;2022-07-29T14:06:12;24.10;87.30
21302;DHT22;10810;48.270;9.996;2022-07-29T14:08:41;24.10;85.60
21302;DHT22;10810;48.270;9.996;2022-07-29T14:11:10;24.10;83.40
21302;DHT22;10810;48.270;9.996;2022-07-29T14:13:37;24.10;84.40
21302;DHT22;10810;48.270;9.996;2022-07-29T14:16:04;24.00;83.40
21302;DHT22;10810;48.270;9.996;2022-07-29T14:18:32;24.10;84.50
21302;DHT22;10810;48.270;9.996;2022-07-29T14:21:00;24.00;83.10
21302;DHT22;10810;48.270;9.996;2022-07-29T14:23:30;24.00;81.90
21302;DHT22;10810;48.270;9.996;2022-07-29T14:25:58;23.90;83.80
21302;DHT22;10810;48.270;9.996;2022-07-29T14:28:26;24.00;83.10
21302;DHT22;10810;48.270;9.996;2022-07-29T14:30:53;23.90;82.10
21302;DHT22;10810;48.270;9.996;2022-07-29T14:33:23;23.90;82.70
21302;DHT22;10810;48.270;9.996;2022-07-29T14:35:50;23.80;85.20
21302;DHT22;10810;48.270;9.996;2022-07-29T14:38:23;23.80;82.80
21302;DHT22;10810;48.270;9.996;2022-07-29T14:40:52;23.80;84.30
21302;DHT22;10810;48.270;9.996;2022-07-29T14:43:26;23.80;85.30
21302;DHT22;10810;48.270;9.996;2022-07-29T14:45:56;23.70;85.50
21302;DHT22;10810;48.270;9.996;2022-07-29T14:48:24;23.80;85.40
21302;DHT22;10810;48.270;9.996;2022-07-29T14:50:56;23.80;84.50
21302;DHT22;10810;48.270;9.996;2022-07-29T14:53:52;23.70;84.10
21302;DHT22;10810;48.270;9.996;2022-07-29T14:56:25;23.70;85.60
21302;DHT22;10810;48.270;9.996;2022-07-29T14:58:54;23.70;85.70
21302;DHT22;10810;48.270;9.996;2022-07-29T15:01:28;23.60;84.20
21302;DHT22;10810;48.270;9.996;2022-07-29T15:03:55;23.60;88.30
21302;DHT22;10810;48.270;9.996;2022-07-29T15:06:24;23.60;87.00
21302;DHT22;10810;48.270;9.996;2022-07-29T15:08:53;23.60;88.90
21302;DHT22;10810;48.270;9.996;2022-07-29T15:11:26;23.60;88.70
21302;DHT22;10810;48.270;9.996;2022-07-29T15:14:02;23.60;87.90
21302;DHT22;10810;48.270;9.996;2022-07-29T15:16:44;23.50;90.10
21302;DHT22;10810;48.270;9.996;2022-07-29T15:19:15;23.50;89.70
21302;DHT22;10810;48.270;9.996;2022-07-29T15:21:42;23.50;89.70
21302;DHT22;10810;48.270;9.996;2022-07-29T15:24:10;23.50;89.70
21302;DHT22;10810;48.270;9.996;2022-07-29T15:26:40;23.50;90.60
21302;DHT22;10810;48.270;9.996;2022-07-29T15:29:23;23.50;91.00
21302;DHT22;10810;48.270;9.996;2022-07-29T15:31:50;23.50;91.50
21302;DHT22;10810;48.270;9.996;2022-07-29T15:34:19;23.40;91.00
21302;DHT22;10810;48.270;9.996;2022-07-29T15:36:49;23.40;90.40
21302;DHT22;10810;48.270;9.996;2022-07-29T15:39:20;23.40;90.20
21302;DHT22;10810;48.270;9.996;2022-07-29T15:41:48;23.40;91.20
21302;DHT22;10810;48.270;9.996;2022-07-29T15:44:20;23.30;90.50
21302;DHT22;10810;48.270;9.996;2022-07-29T15:46:47;23.30;91.60
21302;DHT22;10810;48.270;9.996;2022-07-29T15:49:32;23.30;90.70
21302;DHT22;10810;48.270;9.996;2022-07-29T15:51:59;23.30;90.60
21302;DHT22;10810;48.270;9.996;2022-07-29T15:54:32;23.30;91.00
21302;DHT22;10810;48.270;9.996;2022-07-29T15:57:02;23.20;92.00
21302;DHT22;10810;48.270;9.996;2022-07-29T15:59:35;23.20;92.10
21302;DHT22;10810;48.270;9.996;2022-07-29T16:02:03;23.20;91.20
21302;DHT22;10810;48.270;9.996;2022-07-29T16:04:32;23.30;91.90
21302;DHT22;10810;48.270;9.996;2022-07-29T16:07:01;23.20;91.70
21302;DHT22;10810;48.270;9.996;2022-07-29T16:09:31;23.10;91.10
21302;DHT22;10810;48.270;9.996;2022-07-29T16:11:58;23.20;91.70
21302;DHT22;10810;48.270;9.996;2022-07-29T16:14:25;23.10;90.90
21302;DHT22;10810;48.270;9.996;2022-07-29T16:16:56;23.20;91.10
21302;DHT22;10810;48.270;9.996;2022-07-29T16:19:35;23.10;91.40